createdAt,value
2022-12-22T00:04:42.792Z,1001.496
2022-12-22T00:09:45.616Z,1001.57
2022-12-22T00:14:48.090Z,1001.458
2022-12-22T00:19:54.989Z,1001.484
2022-12-22T00:24:57.794Z,1001.478
2022-12-22T00:30:00.578Z,1001.409
2022-12-22T00:35:03.208Z,1001.413
2022-12-22T00:40:05.618Z,1001.322
2022-12-22T00:45:08.126Z,1001.278
2022-12-22T00:50:10.663Z,1001.167
2022-12-22T00:55:13.370Z,1001.126
2022-12-22T01:00:15.882Z,1001.139
2022-12-22T01:10:23.917Z,1001.073
2022-12-22T01:15:26.526Z,1001.121
2022-12-22T01:20:29.087Z,1001.1
2022-12-22T01:25:31.816Z,1000.959
2022-12-22T01:30:34.557Z,1000.874
2022-12-22T01:35:37.264Z,1000.732
2022-12-22T01:40:40.014Z,1000.711
2022-12-22T01:45:42.606Z,1000.645
2022-12-22T01:50:45.162Z,1000.65
2022-12-22T01:55:48.003Z,1000.56
2022-12-22T02:00:50.771Z,1000.511
2022-12-22T02:05:53.578Z,1000.41
2022-12-22T02:10:55.994Z,1000.412
2022-12-22T02:16:01.543Z,1000.363
2022-12-22T02:21:04.206Z,1000.291
2022-12-22T02:26:06.826Z,1000.18
2022-12-22T02:37:11.833Z,999.9908
2022-12-22T02:42:14.298Z,999.853
2022-12-22T02:47:16.689Z,999.7708
2022-12-22T02:52:19.292Z,999.8466
2022-12-22T02:57:22.315Z,999.7266
2022-12-22T03:02:24.595Z,999.6387
2022-12-22T03:07:27.188Z,999.6047
2022-12-22T03:12:30.082Z,999.6891
2022-12-22T03:17:32.432Z,999.6738
2022-12-22T03:22:35.258Z,999.6088
2022-12-22T03:27:38.121Z,999.5798
2022-12-22T03:32:40.757Z,999.5714
2022-12-22T03:37:43.379Z,999.496
2022-12-22T03:42:46.079Z,999.4651
2022-12-22T03:47:48.695Z,999.3845
2022-12-22T03:52:51.330Z,999.2222
2022-12-22T04:03:24.029Z,999.0186
2022-12-22T04:08:26.466Z,998.9202
2022-12-22T04:13:37.548Z,998.8156
2022-12-22T04:18:40.603Z,998.8416
2022-12-22T04:23:45.663Z,998.9272
2022-12-22T04:28:48.692Z,998.8307
2022-12-22T04:33:51.256Z,998.7296
2022-12-22T04:38:54.020Z,998.6403
2022-12-22T04:43:56.822Z,998.5984
2022-12-22T04:49:00.378Z,998.5684
2022-12-22T04:54:01.887Z,998.5569
2022-12-22T04:59:04.577Z,998.4093
2022-12-22T05:04:07.235Z,998.3397
2022-12-22T05:09:09.925Z,998.2823
2022-12-22T05:14:12.389Z,998.2378
2022-12-22T05:19:14.823Z,998.1747
2022-12-22T05:24:17.396Z,998.1565
2022-12-22T05:29:19.896Z,998.0875
2022-12-22T05:34:22.383Z,998.0214
2022-12-22T05:39:25.093Z,997.9891
2022-12-22T05:44:27.807Z,997.9438
2022-12-22T05:49:30.522Z,997.8453
2022-12-22T05:54:33.089Z,997.7936
2022-12-22T05:59:35.769Z,997.7313
2022-12-22T06:04:38.418Z,997.7252
2022-12-22T06:09:41.184Z,997.6174
2022-12-22T06:14:43.914Z,997.5542
2022-12-22T06:25:18.649Z,997.429
2022-12-22T06:35:21.762Z,997.3692
2022-12-22T06:40:24.614Z,997.3018
2022-12-22T06:45:27.317Z,997.34
2022-12-22T06:50:29.922Z,997.2576
2022-12-22T06:55:32.617Z,997.2001
2022-12-22T07:00:35.279Z,997.3126
2022-12-22T07:05:37.990Z,997.3175
2022-12-22T07:10:40.782Z,997.1372
2022-12-22T07:15:43.270Z,997.1348
2022-12-22T07:20:49.017Z,997.1016
2022-12-22T07:25:51.882Z,997.1012
2022-12-22T07:30:54.376Z,997.0789
2022-12-22T07:35:59.877Z,997.0494
2022-12-22T07:41:05.107Z,997.03
2022-12-22T07:46:05.068Z,997.0084
2022-12-22T07:51:07.718Z,996.8778
2022-12-22T07:56:10.461Z,996.8711
2022-12-22T08:01:13.063Z,996.7844
2022-12-22T08:06:15.766Z,996.7164
2022-12-22T08:11:18.435Z,996.7332
2022-12-22T08:16:21.283Z,996.688
2022-12-22T08:21:23.656Z,996.5733
2022-12-22T08:26:26.448Z,996.6241
2022-12-22T08:31:28.746Z,996.5403
2022-12-22T08:36:31.430Z,996.4882
2022-12-22T08:41:34.074Z,996.4133
2022-12-22T08:46:36.965Z,996.3762
2022-12-22T08:51:39.669Z,996.3973
2022-12-22T08:56:42.306Z,996.341
2022-12-22T09:01:45.243Z,996.2477
2022-12-22T09:06:47.811Z,996.1713
2022-12-22T09:11:50.561Z,996.1664
2022-12-22T09:21:56.146Z,996.0381
2022-12-22T09:26:59.048Z,996.0421
2022-12-22T09:32:01.846Z,996.0137
2022-12-22T09:37:04.623Z,995.9958
2022-12-22T09:42:07.197Z,995.9086
2022-12-22T09:47:10.023Z,995.866
2022-12-22T09:52:12.689Z,995.7522
2022-12-22T09:57:15.356Z,995.7921
2022-12-22T10:02:18.001Z,995.759
2022-12-22T10:07:20.670Z,995.7147
2022-12-22T10:12:23.552Z,995.7082
2022-12-22T10:17:26.230Z,995.718
2022-12-22T10:22:29.001Z,995.6013
2022-12-22T10:27:32.439Z,995.5015
2022-12-22T10:32:35.123Z,995.3915
2022-12-22T10:38:20.868Z,995.3361
2022-12-22T10:43:20.636Z,995.2983
2022-12-22T10:48:23.188Z,995.2709
2022-12-22T10:53:26.113Z,995.1923
2022-12-22T10:58:28.674Z,995.1528
2022-12-22T11:03:31.760Z,995.2144
2022-12-22T11:08:34.303Z,995.1765
2022-12-22T11:13:37.205Z,995.0441
2022-12-22T11:18:42.643Z,995.0014
2022-12-22T11:23:45.616Z,994.9445
2022-12-22T11:28:48.368Z,994.9059
2022-12-22T11:33:51.029Z,994.9188
2022-12-22T11:38:53.595Z,994.905
2022-12-22T11:43:56.309Z,994.8544
2022-12-22T11:48:59.228Z,994.7991
2022-12-22T11:54:07.112Z,994.7737
2022-12-22T11:59:04.792Z,994.7853
2022-12-22T12:04:07.435Z,994.7776
2022-12-22T12:09:10.106Z,994.7097
2022-12-22T12:14:13.003Z,994.5847
2022-12-22T12:19:18.153Z,994.6555
2022-12-22T12:24:18.619Z,994.7396
2022-12-22T12:29:21.488Z,994.7769
2022-12-22T12:34:24.096Z,994.7597
2022-12-22T12:39:26.687Z,994.717
2022-12-22T12:44:29.506Z,994.6779
2022-12-22T12:49:32.114Z,994.6774
2022-12-22T12:54:34.673Z,994.6855
2022-12-22T12:59:37.412Z,994.6675
2022-12-22T13:04:40.007Z,994.6714
2022-12-22T13:09:51.380Z,994.7656
2022-12-22T13:14:45.585Z,994.843
2022-12-22T13:19:48.386Z,994.9119
2022-12-22T13:24:50.988Z,994.9612
2022-12-22T13:29:53.712Z,994.9945
2022-12-22T13:39:58.865Z,995.079
2022-12-22T13:45:01.294Z,995.1451
2022-12-22T13:50:10.952Z,995.1916
2022-12-22T13:55:06.239Z,995.2374
2022-12-22T14:00:09.526Z,995.2605
2022-12-22T14:05:12.149Z,995.3026
2022-12-22T14:10:14.746Z,995.391
2022-12-22T14:15:17.381Z,995.4864
2022-12-22T14:20:20.172Z,995.5803
2022-12-22T14:25:22.956Z,995.6521
2022-12-22T14:30:25.562Z,995.7332
2022-12-22T14:35:28.174Z,995.7546
2022-12-22T14:40:30.901Z,995.8099
2022-12-22T14:45:33.568Z,995.9785
2022-12-22T14:50:36.099Z,996.0159
2022-12-22T14:55:38.612Z,996.0977
2022-12-22T15:00:41.430Z,996.1495
2022-12-22T15:05:43.892Z,996.288
2022-12-22T15:10:51.532Z,996.3254
2022-12-22T15:15:54.521Z,996.4272
2022-12-22T15:20:57.114Z,996.4409
2022-12-22T15:26:00.245Z,996.6021
2022-12-22T15:31:02.923Z,996.697
2022-12-22T15:36:05.587Z,996.7814
2022-12-22T15:41:08.000Z,996.8658
2022-12-22T15:46:10.647Z,996.952
2022-12-22T15:51:13.897Z,996.9565
2022-12-22T15:56:17.771Z,997.0527
2022-12-22T16:01:19.336Z,997.1071
2022-12-22T16:06:21.916Z,997.2906
2022-12-22T16:11:24.587Z,997.3524
2022-12-22T16:16:27.434Z,997.5037
2022-12-22T16:21:30.209Z,997.44
2022-12-22T16:26:32.716Z,997.5051
2022-12-22T16:37:42.139Z,997.6738
2022-12-22T16:43:50.044Z,997.7338
2022-12-22T16:47:47.383Z,997.8088
2022-12-22T16:52:50.125Z,997.8345
2022-12-22T16:57:52.703Z,997.7157
2022-12-22T17:07:58.072Z,997.9572
2022-12-22T17:13:00.716Z,997.9853
2022-12-22T17:18:03.382Z,998.0594
2022-12-22T17:23:05.875Z,998.077
2022-12-22T17:28:08.704Z,998.1097
2022-12-22T17:33:14.169Z,998.2287
2022-12-22T17:38:16.717Z,998.3004
2022-12-22T17:43:19.681Z,998.2605
2022-12-22T17:53:24.712Z,998.3367
2022-12-22T18:03:32.863Z,998.368
2022-12-22T18:08:35.705Z,998.4366
2022-12-22T18:13:38.372Z,998.4944
2022-12-22T18:18:41.142Z,998.5217
2022-12-22T18:28:46.553Z,998.6186
2022-12-22T18:38:52.117Z,998.507
2022-12-22T18:43:54.665Z,998.509
2022-12-22T18:49:05.208Z,998.5589
2022-12-22T18:54:02.681Z,998.5884
2022-12-22T18:59:08.561Z,998.5737
2022-12-22T19:09:13.624Z,998.5128
2022-12-22T19:14:15.936Z,998.4614
2022-12-22T19:19:18.703Z,998.4727
2022-12-22T19:24:21.235Z,998.5125
2022-12-22T19:29:24.006Z,998.6097
2022-12-22T19:34:29.284Z,998.5497
2022-12-22T19:39:31.995Z,998.5664
2022-12-22T19:49:37.476Z,998.4904
2022-12-22T19:54:40.126Z,998.4689
2022-12-22T19:59:44.621Z,998.4087
2022-12-22T20:04:47.190Z,998.3592
2022-12-22T20:09:51.530Z,998.4292
2022-12-22T20:14:56.231Z,998.4044
2022-12-22T20:25:01.753Z,998.5
2022-12-22T20:35:07.524Z,998.4185
2022-12-22T20:40:13.175Z,998.5028
2022-12-22T20:45:15.910Z,998.4068
2022-12-22T20:50:18.582Z,998.4814
2022-12-22T20:55:21.214Z,998.4498
2022-12-22T21:05:26.457Z,998.4239
2022-12-22T21:10:29.217Z,998.5016
2022-12-22T21:15:31.820Z,998.5691
2022-12-22T21:20:34.640Z,998.5353
2022-12-22T21:25:39.710Z,998.4091
2022-12-22T21:30:40.089Z,998.3998
2022-12-22T21:35:42.437Z,998.363
2022-12-22T21:40:45.190Z,998.4155
2022-12-22T21:45:47.670Z,998.424
2022-12-22T21:50:50.517Z,998.4594
2022-12-22T21:55:53.136Z,998.4312
2022-12-22T22:00:57.674Z,998.379
2022-12-22T22:06:00.360Z,998.3638
2022-12-22T22:11:02.630Z,998.2353
2022-12-22T22:16:05.566Z,998.2211
2022-12-22T22:21:08.294Z,998.2022
2022-12-22T22:26:10.991Z,998.2059
2022-12-22T22:31:13.760Z,998.2321
2022-12-22T22:36:17.088Z,998.2687
2022-12-22T22:41:19.666Z,998.2233
2022-12-22T22:46:22.324Z,998.18
2022-12-22T22:51:24.976Z,998.1494
2022-12-22T22:56:27.542Z,997.9986
2022-12-22T23:01:48.484Z,997.9458
2022-12-22T23:06:51.258Z,997.937
2022-12-22T23:11:53.964Z,997.8816
2022-12-22T23:16:56.532Z,997.7639
2022-12-22T23:21:59.276Z,997.7305
2022-12-22T23:27:01.925Z,997.726
2022-12-22T23:32:04.553Z,997.7286
2022-12-22T23:37:07.281Z,997.675
2022-12-22T23:42:10.066Z,997.5825
2022-12-22T23:47:12.604Z,997.5681
2022-12-22T23:52:15.291Z,997.4651
2022-12-22T23:57:17.970Z,997.3474
